05:34
Airports
History
Links
Donate
Help keep this website running!
PayPal
Bitcoin
Information on this page is community maintained and may be outdated or inaccurate and is intended for reference only or PC simulator navigating.
Always use approved charts for navigating.
VEMN
DIBRUGARH
DIBRUGARH (VEMN)
Dibrugarh, Assam, India (786010)
(C)
Lat/Lng:27° 29' 1.87" N / 95° 1' 0.92" E
27.483852 / 95.016921
Elevation:362'ft 110mMSL
ID / ICAO:VEMN
Runways:1
Longest:(05-23) 1,834.6m 6,019ft Asphalt
Controlled:Yes
Distance To
Airport ID:
Airport Radio Frequencies
Tower: 122.7, 123.5
Nearby VORs <50NM
Nearby NDBs
METARUpdated 05-30-17 05:02 GMT
Altimeter: 29.65
Visibility: 2.5 statute miles
Wind: 8 knots (020°)
Temp: 26°c 79°f
Humidity: 88.8%

METAR: VEMN 300502Z 02008KT 4000 HZ SCT018 BKN100 26/24 Q1004 BECMG 5000 HZ

(Powered by phpweather)
Runway 05 / 23
Dimensions:1834.6 x 45.1m 6019' x 148'ft
Surface:Asphalt
Runway 05 [A]Runway 23 [B]
Heading:045°TH 225°TH
Lat:
Lng:
27° 28' 40.91"N
95° 0' 37.12"E
27° 29' 22.82"N
95° 1' 24.71"E
ALS:MALS
User Notes and Comments
Google Map
Nearby Airports
(U) CHABUA 6.4 NM
VECA ESE 103°
(U) SOOKERATING 34.3 NM
VE24 E 82°
4 ALONG 49.5 NM
VEAN NNW 344°
(C) LILABARI 57.9 NM
VELR (WX) WSW 257°
(C) ZERO 73.2 NM
VEZO W 275°
(C) JORHAT 73.3 NM
VEJT SW 224°
4 TEJU NEW 75.3 NM
VE48 ENE 65°
VFR Chart
Flight Planning at SkyVector.com